Terminal Aerodrome Forecast
Issued by NWS Shreveport, LA

Home | Current Version | Previous Version | Text Only | Print | Product List | Glossary On
Versions: 1 2 3 4 5 6 7 8 9 10 11 12 13 14 15 16 17 18 19 20
000
FTUS44 KSHV 250521
TAFTYR
TAF
KTYR 250521Z 2506/2606 16011KT P6SM FEW080 WS010/19030KT
      TEMPO 2506/2509 BKN020
     FM250900 18010KT P6SM BKN015
      TEMPO 2511/2513 OVC007
     FM251700 17012G18KT P6SM BKN025 BKN250
     FM252100 18010KT P6SM OVC035
     FM260300 16008KT P6SM OVC025=

USA.gov is the U.S. government's official web portal to all federal, state and local government web resources and services.